Time;durP1;ratioP1;P1;durP2;ratioP2;P2;SDS_P1;SDS_P2;PMS_P1;PMS_P2;Temp;Humidity;BMP_temperature;BMP_pressure;BME280_temperature;BME280_humidity;BME280_pressure;Samples;Min_cycle;Max_cycle;Signal;HPM_P1;HPM_P2
2023/02/16 00:01:30;;;;;;;3.73;3.23;;;3.10;99.90;;;;;;5072018;28;20429;-72
2023/02/16 00:03:57;;;;;;;4.30;3.60;;;3.10;99.90;;;;;;5071768;28;20402;-71
2023/02/16 00:06:23;;;;;;;4.10;3.70;;;2.70;99.90;;;;;;5064023;28;20405;-71
2023/02/16 00:08:52;;;;;;;4.18;3.40;;;2.80;99.90;;;;;;5061387;28;20402;-71
2023/02/16 00:14:12;;;;;;;3.93;3.10;;;2.90;99.90;;;;;;5061716;28;20471;-72
2023/02/16 00:16:39;;;;;;;4.37;3.70;;;3.20;99.90;;;;;;5057051;28;20902;-72
2023/02/16 00:19:26;;;;;;;4.03;3.50;;;2.90;99.90;;;;;;5060061;28;20411;-71
2023/02/16 00:21:54;;;;;;;3.95;3.55;;;3.20;99.90;;;;;;5071567;28;20399;-70
2023/02/16 00:24:20;;;;;;;4.60;3.58;;;;;;;;;;5071338;28;20388;-71
2023/02/16 00:26:47;;;;;;;3.73;3.20;;;2.70;99.90;;;;;;5070621;28;20789;-71
2023/02/16 00:29:18;;;;;;;4.90;3.22;;;3.10;99.90;;;;;;5071116;28;20411;-72
2023/02/16 00:31:44;;;;;;;4.50;3.33;;;2.80;99.90;;;;;;5070829;28;20746;-71
2023/02/16 00:34:28;;;;;;;5.00;3.92;;;3.10;99.90;;;;;;5071088;28;20378;-70
2023/02/16 00:36:55;;;;;;;4.20;3.80;;;2.90;99.90;;;;;;5070454;28;20942;-71
2023/02/16 00:39:23;;;;;;;4.33;3.30;;;2.70;99.90;;;;;;5071017;28;20419;-71
2023/02/16 00:41:50;;;;;;;4.95;3.50;;;3.10;99.90;;;;;;5071077;28;20387;-72
2023/02/16 00:44:35;;;;;;;4.13;3.60;;;2.90;99.90;;;;;;5070946;28;20394;-71
2023/02/16 00:47:33;;;;;;;4.35;3.30;;;3.00;99.90;;;;;;5070374;28;20379;-71
2023/02/16 00:49:58;;;;;;;3.78;3.00;;;3.20;99.90;;;;;;5069689;28;20547;-71
2023/02/16 00:52:32;;;;;;;4.18;3.72;;;2.80;99.90;;;;;;5070761;28;20869;-71
2023/02/16 00:54:58;;;;;;;3.40;3.10;;;2.90;99.90;;;;;;5070839;28;20420;-71
2023/02/16 00:57:26;;;;;;;3.85;3.45;;;2.60;99.90;;;;;;5070089;28;20400;-71
2023/02/16 00:59:59;;;;;;;5.32;3.58;;;2.80;99.90;;;;;;5070383;28;20391;-70
2023/02/16 01:02:25;;;;;;;4.17;3.60;;;3.10;99.90;;;;;;5070269;28;20436;-71
2023/02/16 01:04:50;;;;;;;5.43;4.00;;;2.90;99.90;;;;;;5070500;28;20470;-70
2023/02/16 01:12:47;;;;;;;5.40;4.10;;;3.10;99.90;;;;;;5050656;28;20435;-70
2023/02/16 01:15:16;;;;;;;4.80;4.18;;;3.20;99.90;;;;;;5061978;28;20792;-71
2023/02/16 01:17:42;;;;;;;4.77;4.07;;;3.10;99.90;;;;;;5068931;28;20555;-71
2023/02/16 01:20:19;;;;;;;4.90;3.93;;;3.00;99.90;;;;;;5070467;28;20584;-70
2023/02/16 01:22:45;;;;;;;5.95;4.18;;;3.30;99.90;;;;;;5070321;28;20388;-70
2023/02/16 01:25:10;;;;;;;5.97;4.53;;;3.00;99.90;;;;;;5070259;28;20433;-72
2023/02/16 01:27:37;;;;;;;5.93;4.30;;;2.90;99.90;;;;;;5069815;28;20384;-72
2023/02/16 01:30:05;;;;;;;4.70;4.20;;;2.90;99.90;;;;;;5069677;28;20399;-71
2023/02/16 01:32:30;;;;;;;4.40;4.00;;;3.20;99.90;;;;;;5069564;28;20453;-72
2023/02/16 01:34:56;;;;;;;4.90;4.40;;;2.80;99.90;;;;;;5070284;28;20772;-72
2023/02/16 01:37:22;;;;;;;5.30;4.37;;;3.30;99.90;;;;;;5068359;28;20380;-72
2023/02/16 01:39:48;;;;;;;5.63;4.80;;;;;;;;;;5068928;28;20937;-72
2023/02/16 01:42:27;;;;;;;7.13;4.85;;;3.00;99.90;;;;;;5070005;28;20426;-72
2023/02/16 01:44:58;;;;;;;5.43;4.83;;;3.00;99.90;;;;;;5069462;28;20395;-72
2023/02/16 01:47:36;;;;;;;5.97;4.93;;;3.20;99.90;;;;;;5069535;28;20395;-72
2023/02/16 01:50:17;;;;;;;6.63;5.00;;;3.00;99.90;;;;;;5070031;28;20399;-72
2023/02/16 01:52:51;;;;;;;6.07;4.20;;;2.70;99.90;;;;;;5069955;28;20383;-72
2023/02/16 01:55:26;;;;;;;6.22;4.55;;;3.20;99.90;;;;;;5069827;28;20375;-72
2023/02/16 01:58:05;;;;;;;7.50;5.20;;;2.90;99.90;;;;;;5069286;28;20495;-71
2023/02/16 02:00:55;;;;;;;5.63;4.45;;;3.00;99.90;;;;;;5070811;28;20402;-72
2023/02/16 02:06:32;;;;;;;6.55;5.20;;;3.00;99.90;;;;;;5066255;28;20381;-72
2023/02/16 02:09:00;;;;;;;7.10;5.10;;;2.90;99.90;;;;;;5053833;28;20955;-71
2023/02/16 02:11:37;;;;;;;6.13;4.40;;;2.80;99.90;;;;;;5053684;28;20407;-72
2023/02/16 02:14:12;;;;;;;7.38;5.30;;;2.90;99.90;;;;;;5053831;28;20381;-72
2023/02/16 02:16:38;;;;;;;5.03;4.22;;;2.90;99.90;;;;;;5072336;28;20387;-72
2023/02/16 02:19:04;;;;;;;6.07;4.50;;;2.70;99.90;;;;;;5073783;28;20474;-72
2023/02/16 02:25:09;;;;;;;7.90;6.10;;;2.90;99.90;;;;;;5073541;28;20441;-72
2023/02/16 02:27:41;;;;;;;6.75;5.13;;;2.80;99.90;;;;;;5072711;28;20403;-72
2023/02/16 02:30:29;;;;;;;6.90;5.50;;;2.80;99.90;;;;;;5073281;28;20404;-71
2023/02/16 02:32:54;;;;;;;6.10;5.00;;;2.70;99.90;;;;;;5073420;28;20384;-71
2023/02/16 02:35:43;;;;;;;6.90;5.73;;;2.80;99.90;;;;;;5071821;28;20411;-72
2023/02/16 02:38:22;;;;;;;6.82;5.30;;;2.40;99.90;;;;;;5073158;28;20375;-72
2023/02/16 02:41:12;;;;;;;5.68;4.88;;;2.40;99.90;;;;;;5077768;28;20460;-73
2023/02/16 02:43:59;;;;;;;6.18;5.10;;;2.40;99.90;;;;;;5076927;28;20470;-73
2023/02/16 02:46:34;;;;;;;7.40;5.72;;;2.20;99.90;;;;;;5074571;28;20562;-73
2023/02/16 02:49:00;;;;;;;8.00;5.70;;;;;;;;;;5073015;28;20435;-72
2023/02/16 02:51:28;;;;;;;7.50;5.50;;;2.50;99.90;;;;;;5071960;28;20855;-72
2023/02/16 03:03:14;;;;;;;7.60;6.10;;;2.20;99.90;;;;;;5072855;28;20411;-72
2023/02/16 03:05:45;;;;;;;6.60;5.20;;;2.20;99.90;;;;;;5071300;28;20383;-72
2023/02/16 03:08:14;;;;;;;7.22;6.00;;;2.20;99.90;;;;;;5052572;28;20479;-72
2023/02/16 03:13:45;;;;;;;8.95;6.07;;;2.30;99.90;;;;;;5057913;28;20390;-72
2023/02/16 03:16:20;;;;;;;7.47;6.20;;;2.20;99.90;;;;;;5072362;28;20853;-72
2023/02/16 03:29:54;;;;;;;9.13;6.05;;;2.20;99.90;;;;;;5072111;28;20520;-72
2023/02/16 03:32:20;;;;;;;7.85;6.35;;;2.10;99.90;;;;;;5072272;28;20383;-71
2023/02/16 03:34:46;;;;;;;7.87;6.20;;;2.40;99.90;;;;;;5073886;28;20407;-72
2023/02/16 03:37:12;;;;;;;9.10;6.33;;;2.30;99.90;;;;;;5072079;28;20384;-71
2023/02/16 03:42:23;;;;;;;10.23;6.40;;;2.30;99.90;;;;;;5072561;28;20415;-72
2023/02/16 03:44:49;;;;;;;6.88;6.07;;;2.70;99.90;;;;;;5071559;28;20453;-71
2023/02/16 03:47:15;;;;;;;8.38;5.78;;;2.50;99.90;;;;;;5071595;28;20406;-72
2023/02/16 03:49:40;;;;;;;7.82;5.82;;;2.20;99.90;;;;;;5071770;28;20725;-71
2023/02/16 03:52:06;;;;;;;8.10;6.10;;;2.40;99.90;;;;;;5071949;28;20384;-71
2023/02/16 03:54:31;;;;;;;8.90;6.85;;;2.40;99.90;;;;;;5070651;28;20412;-71
2023/02/16 03:56:57;;;;;;;6.60;5.57;;;2.40;99.90;;;;;;5071350;28;20388;-71
2023/02/16 03:59:22;;;;;;;9.47;5.80;;;2.40;99.90;;;;;;5069893;28;20421;-71
2023/02/16 04:01:48;;;;;;;6.53;5.40;;;2.60;99.90;;;;;;5071593;28;21004;-71
2023/02/16 04:04:14;;;;;;;9.20;5.80;;;2.40;99.90;;;;;;5071695;28;20483;-72
2023/02/16 04:06:39;;;;;;;6.85;5.60;;;2.50;99.90;;;;;;5061821;28;20469;-71
2023/02/16 04:09:05;;;;;;;7.45;5.95;;;2.60;99.90;;;;;;5051427;28;20450;-71
2023/02/16 04:14:15;;;;;;;8.27;5.80;;;2.70;99.90;;;;;;5051751;28;20392;-71
2023/02/16 04:16:40;;;;;;;8.70;5.50;;;2.30;99.90;;;;;;5051116;28;20377;-71
2023/02/16 04:19:06;;;;;;;7.38;5.57;;;2.40;99.90;;;;;;5066829;28;20425;-71
2023/02/16 04:21:32;;;;;;;8.35;6.25;;;2.40;99.90;;;;;;5067347;28;20396;-72
2023/02/16 04:23:58;;;;;;;7.75;6.10;;;2.40;99.90;;;;;;5052472;28;20464;-71
2023/02/16 04:26:24;;;;;;;8.55;5.68;;;2.40;99.90;;;;;;5070935;28;20463;-70
2023/02/16 04:28:50;;;;;;;7.53;6.10;;;;;;;;;;5069696;28;20400;-71
2023/02/16 04:31:15;;;;;;;8.38;5.53;;;2.80;99.90;;;;;;5070061;28;20373;-72
2023/02/16 04:33:41;;;;;;;7.47;5.97;;;2.80;99.90;;;;;;5071427;28;20372;-71
2023/02/16 04:36:07;;;;;;;6.60;5.70;;;2.80;99.90;;;;;;5071220;28;20869;-71
2023/02/16 04:38:33;;;;;;;8.65;6.20;;;;;;;;;;5070992;28;20379;-70
2023/02/16 04:40:59;;;;;;;7.75;6.30;;;2.90;99.90;;;;;;5071173;28;20399;-71
2023/02/16 04:43:24;;;;;;;7.33;5.83;;;2.60;99.90;;;;;;5070910;28;20418;-71
2023/02/16 04:45:50;;;;;;;7.20;6.00;;;3.30;99.90;;;;;;5070998;28;20416;-72
2023/02/16 04:48:15;;;;;;;6.60;5.73;;;2.60;99.90;;;;;;5071176;28;20384;-71
2023/02/16 04:50:41;;;;;;;7.97;5.63;;;2.40;99.90;;;;;;5071242;28;20403;-71
2023/02/16 04:53:06;;;;;;;8.70;5.70;;;2.10;99.90;;;;;;5071179;28;20372;-71
2023/02/16 04:55:32;;;;;;;9.27;5.73;;;2.20;99.90;;;;;;5070563;28;20777;-72
2023/02/16 04:57:57;;;;;;;8.50;5.80;;;2.00;99.90;;;;;;5084890;22;20425;-76
2023/02/16 05:00:23;;;;;;;8.63;6.40;;;2.00;99.90;;;;;;5050566;28;20389;-75
2023/02/16 05:02:48;;;;;;;8.60;6.23;;;1.80;99.90;;;;;;5049389;28;20385;-73
2023/02/16 05:05:14;;;;;;;8.37;5.63;;;1.90;99.90;;;;;;5050292;28;20401;-74
2023/02/16 05:07:39;;;;;;;8.70;6.50;;;2.10;99.90;;;;;;5049697;28;20370;-76
2023/02/16 05:10:06;;;;;;;8.60;5.80;;;2.00;99.90;;;;;;5030138;28;20415;-75
2023/02/16 05:15:16;;;;;;;9.20;6.18;;;2.10;99.90;;;;;;5030869;28;20445;-75
2023/02/16 05:17:41;;;;;;;8.05;6.47;;;1.90;99.90;;;;;;5030379;28;20414;-75
2023/02/16 05:20:07;;;;;;;10.60;7.72;;;2.20;99.90;;;;;;5030581;28;20463;-75
2023/02/16 05:22:33;;;;;;;9.23;7.45;;;1.90;99.90;;;;;;5030753;28;20475;-75
2023/02/16 05:24:59;;;;;;;9.23;7.90;;;1.90;99.90;;;;;;5030502;28;20477;-75
2023/02/16 05:27:26;;;;;;;9.38;7.15;;;1.70;99.90;;;;;;5012759;28;20429;-75
2023/02/16 05:29:52;;;;;;;10.05;7.13;;;1.90;99.90;;;;;;5012658;28;20411;-75
2023/02/16 05:32:19;;;;;;;9.50;6.90;;;1.50;99.90;;;;;;5030707;28;20379;-75
2023/02/16 05:34:44;;;;;;;7.60;6.15;;;1.70;99.90;;;;;;5029973;28;20410;-76
2023/02/16 05:37:11;;;;;;;9.07;6.50;;;1.90;99.90;;;;;;5030272;28;20379;-74
2023/02/16 05:39:37;;;;;;;8.68;6.20;;;1.60;99.90;;;;;;5030954;28;20761;-74
2023/02/16 05:42:02;;;;;;;8.13;5.70;;;2.10;99.90;;;;;;5029798;28;20391;-74
2023/02/16 05:44:28;;;;;;;7.93;5.95;;;1.80;99.90;;;;;;5029185;28;20476;-74
2023/02/16 05:46:54;;;;;;;8.70;6.68;;;2.00;99.90;;;;;;5012342;28;20394;-74
2023/02/16 05:49:20;;;;;;;9.15;6.32;;;1.80;99.90;;;;;;5030080;28;20441;-75
2023/02/16 05:51:45;;;;;;;6.97;5.73;;;1.40;99.90;;;;;;5030489;28;20430;-75
2023/02/16 05:54:16;;;;;;;8.70;6.03;;;1.70;99.90;;;;;;5031556;28;20383;-74
2023/02/16 05:56:43;;;;;;;9.10;6.95;;;1.60;99.90;;;;;;5030005;28;20820;-74
2023/02/16 05:59:08;;;;;;;8.65;6.40;;;1.60;99.90;;;;;;5012401;28;20395;-74
2023/02/16 06:01:34;;;;;;;7.78;6.68;;;1.70;99.90;;;;;;5030562;28;20402;-74
2023/02/16 06:03:59;;;;;;;10.90;6.73;;;1.60;99.90;;;;;;5030462;28;20398;-74
2023/02/16 06:06:25;;;;;;;6.93;6.17;;;1.60;99.90;;;;;;5037228;28;20401;-74
2023/02/16 06:08:51;;;;;;;7.30;6.60;;;1.10;99.90;;;;;;5050308;28;20405;-74
2023/02/16 06:11:34;;;;;;;10.00;7.00;;;4.30;99.90;;;;;;5045959;28;20470;-74
2023/02/16 06:14:01;;;;;;;10.13;7.30;;;1.40;99.90;;;;;;5029977;28;20428;-74
2023/02/16 06:16:29;;;;;;;11.60;7.47;;;1.40;99.90;;;;;;5029419;28;20402;-74
2023/02/16 06:18:55;;;;;;;8.73;6.97;;;1.40;99.90;;;;;;5030056;28;20930;-74
2023/02/16 06:21:22;;;;;;;11.25;7.88;;;1.20;99.90;;;;;;5030015;28;20391;-74
2023/02/16 06:23:47;;;;;;;10.30;7.10;;;1.60;99.90;;;;;;5030092;28;20769;-74
2023/02/16 06:26:14;;;;;;;7.43;6.45;;;1.50;99.90;;;;;;5029682;28;20417;-74
2023/02/16 06:28:39;;;;;;;8.87;6.93;;;1.50;99.90;;;;;;5029585;28;20403;-74
2023/02/16 06:31:05;;;;;;;9.40;7.03;;;1.40;99.90;;;;;;5030051;28;20433;-74
2023/02/16 06:33:30;;;;;;;8.63;6.57;;;1.50;99.90;;;;;;5029720;28;20386;-74
2023/02/16 06:35:56;;;;;;;7.05;6.30;;;1.60;99.90;;;;;;5029441;28;20406;-74
2023/02/16 06:38:22;;;;;;;8.48;6.03;;;1.50;99.90;;;;;;5030059;28;20784;-74
2023/02/16 06:40:51;;;;;;;7.40;5.60;;;1.60;99.90;;;;;;5030023;28;20394;-74
2023/02/16 06:43:16;;;;;;;6.90;5.60;;;1.60;99.90;;;;;;5011547;28;20391;-74
2023/02/16 06:45:42;;;;;;;6.63;5.13;;;1.40;99.90;;;;;;5029505;28;20728;-74
2023/02/16 06:48:07;;;;;;;7.90;5.60;;;1.50;99.90;;;;;;5032754;28;20391;-74
2023/02/16 06:50:33;;;;;;;6.93;6.00;;;1.60;99.90;;;;;;5033342;28;20406;-74
2023/02/16 06:52:58;;;;;;;8.77;6.43;;;1.20;99.90;;;;;;5033373;28;20804;-74
2023/02/16 06:55:24;;;;;;;7.03;5.97;;;1.70;99.90;;;;;;5033159;28;20379;-74
2023/02/16 06:57:49;;;;;;;9.40;5.43;;;1.70;99.90;;;;;;5032818;28;20457;-74
2023/02/16 07:00:15;;;;;;;7.20;5.60;;;1.50;99.90;;;;;;5033333;28;20391;-74
2023/02/16 07:02:42;;;;;;;7.68;5.30;;;1.50;99.90;;;;;;5032948;28;20403;-74
2023/02/16 07:05:09;;;;;;;6.70;5.50;;;1.30;99.90;;;;;;5033106;28;20379;-74
2023/02/16 07:07:34;;;;;;;7.00;5.78;;;1.70;99.90;;;;;;5032140;28;20882;-74
2023/02/16 07:10:01;;;;;;;9.27;5.97;;;1.30;99.90;;;;;;5053117;28;20416;-74
2023/02/16 07:12:27;;;;;;;11.13;6.87;;;1.80;99.90;;;;;;5053097;28;20421;-74
2023/02/16 07:14:53;;;;;;;7.75;6.20;;;1.70;99.90;;;;;;5035039;28;20385;-74
2023/02/16 07:17:18;;;;;;;8.27;6.10;;;2.10;99.90;;;;;;5034456;28;20445;-74
2023/02/16 07:19:44;;;;;;;7.20;5.70;;;2.10;99.90;;;;;;5032623;28;20442;-74
2023/02/16 07:22:09;;;;;;;7.63;5.60;;;1.90;99.90;;;;;;5033398;28;20402;-74
2023/02/16 07:24:35;;;;;;;8.57;6.10;;;2.30;99.90;;;;;;5032878;28;20388;-75
2023/02/16 07:27:01;;;;;;;8.77;6.00;;;2.00;99.90;;;;;;5032351;28;20801;-75
2023/02/16 07:29:26;;;;;;;7.23;5.77;;;1.70;99.90;;;;;;5032565;28;20414;-75
2023/02/16 07:31:52;;;;;;;7.30;5.80;;;2.70;99.90;;;;;;5032671;28;20411;-75
2023/02/16 07:34:17;;;;;;;6.37;5.30;;;1.90;99.90;;;;;;5032873;28;20383;-74
2023/02/16 07:36:44;;;;;;;7.23;5.53;;;2.40;99.90;;;;;;5032382;28;20411;-75
2023/02/16 07:39:10;;;;;;;6.70;5.40;;;2.40;99.90;;;;;;5032585;28;20416;-74
2023/02/16 07:41:35;;;;;;;6.60;5.03;;;2.30;99.90;;;;;;5031972;28;20429;-75
2023/02/16 07:44:01;;;;;;;5.60;4.90;;;2.60;99.90;;;;;;5032779;28;20383;-75
2023/02/16 07:46:27;;;;;;;5.95;5.22;;;;;;;;;;5032532;28;20387;-75
2023/02/16 07:48:53;;;;;;;6.53;5.60;;;3.00;99.90;;;;;;5032326;28;20904;-75
2023/02/16 07:51:27;;;;;;;7.70;5.50;;;3.20;99.90;;;;;;5032287;28;20399;-75
2023/02/16 07:53:53;;;;;;;7.30;5.65;;;3.30;99.90;;;;;;5032673;28;20394;-74
2023/02/16 07:56:24;;;;;;;7.70;5.50;;;2.40;99.90;;;;;;5032092;28;20433;-74
2023/02/16 07:58:52;;;;;;;6.70;5.07;;;3.20;99.90;;;;;;5030800;28;20414;-75
2023/02/16 08:01:17;;;;;;;7.38;5.22;;;3.30;99.90;;;;;;5013291;28;20452;-74
2023/02/16 08:03:43;;;;;;;6.83;5.47;;;3.80;99.90;;;;;;5032098;28;20509;-73
2023/02/16 08:06:09;;;;;;;7.20;4.70;;;3.70;99.90;;;;;;5032535;28;20394;-74
2023/02/16 08:08:35;;;;;;;6.10;4.93;;;3.90;99.90;;;;;;5031671;28;21033;-73
2023/02/16 08:11:15;;;;;;;7.60;5.10;;;4.00;99.90;;;;;;5031992;28;20753;-74
2023/02/16 08:13:41;;;;;;;6.10;5.10;;;3.70;99.90;;;;;;5031903;28;20383;-74
2023/02/16 08:16:14;;;;;;;6.60;4.72;;;4.50;99.90;;;;;;5013710;28;20375;-73
2023/02/16 08:18:40;;;;;;;5.93;5.00;;;4.50;99.90;;;;;;5031438;28;20387;-73
2023/02/16 08:21:14;;;;;;;5.50;5.00;;;4.40;99.90;;;;;;5014089;28;20977;-74
2023/02/16 08:23:46;;;;;;;8.45;5.78;;;4.10;99.90;;;;;;5031696;28;20881;-74
2023/02/16 08:26:15;;;;;;;10.10;5.40;;;4.40;99.90;;;;;;5031245;28;20482;-74
2023/02/16 08:28:44;;;;;;;8.90;4.72;;;4.30;99.90;;;;;;5013718;28;20435;-73
2023/02/16 08:31:12;;;;;;;7.68;4.93;;;4.40;99.90;;;;;;5031677;28;20375;-74
2023/02/16 08:33:37;;;;;;;6.68;5.75;;;4.70;99.90;;;;;;5031384;28;20391;-74
2023/02/16 08:36:04;;;;;;;8.20;5.78;;;;;;;;;;5031201;28;20931;-74
2023/02/16 08:38:31;;;;;;;6.03;5.43;;;4.80;99.90;;;;;;5014331;28;20987;-74
2023/02/16 08:40:58;;;;;;;7.53;5.38;;;5.00;99.90;;;;;;5031298;28;20380;-74
2023/02/16 08:43:24;;;;;;;6.03;4.90;;;5.00;99.90;;;;;;5031186;28;20387;-73
2023/02/16 08:45:50;;;;;;;7.80;5.47;;;5.00;99.90;;;;;;5031011;28;20394;-73
2023/02/16 08:48:16;;;;;;;8.18;5.20;;;5.20;99.90;;;;;;5013568;28;20765;-74
2023/02/16 08:50:45;;;;;;;7.00;5.30;;;5.30;99.90;;;;;;5031379;28;20411;-74
2023/02/16 08:53:12;;;;;;;8.20;5.75;;;5.50;99.90;;;;;;5013150;28;20391;-74
2023/02/16 08:55:38;;;;;;;9.30;6.60;;;5.60;99.90;;;;;;5030852;28;20395;-74
2023/02/16 08:58:04;;;;;;;5.70;5.10;;;5.70;99.90;;;;;;5030841;28;20399;-74
2023/02/16 09:00:32;;;;;;;7.03;5.30;;;5.90;99.90;;;;;;5031123;28;20403;-74
2023/02/16 09:02:59;;;;;;;7.13;5.10;;;5.80;99.90;;;;;;5030608;28;20398;-74
2023/02/16 09:05:26;;;;;;;6.57;4.60;;;6.20;99.90;;;;;;5012993;28;20816;-73
2023/02/16 09:07:52;;;;;;;7.13;5.15;;;6.40;99.90;;;;;;5032444;28;20786;-74
2023/02/16 09:10:18;;;;;;;6.32;4.70;;;6.40;99.90;;;;;;5050155;28;20408;-74
2023/02/16 09:12:48;;;;;;;6.20;5.30;;;6.70;99.90;;;;;;5048388;28;20721;-74
2023/02/16 09:15:14;;;;;;;7.30;4.72;;;6.20;99.90;;;;;;5013330;28;20757;-74
2023/02/16 09:17:43;;;;;;;5.40;4.40;;;6.90;99.90;;;;;;5012815;28;20403;-74
2023/02/16 09:20:11;;;;;;;5.82;4.60;;;7.00;97.40;;;;;;5030518;28;22346;-74
2023/02/16 09:22:38;;;;;;;4.90;4.40;;;6.80;97.00;;;;;;5030785;28;20389;-74
2023/02/16 09:25:06;;;;;;;4.70;4.20;;;7.00;96.40;;;;;;5030857;28;20474;-74
2023/02/16 09:27:32;;;;;;;4.70;4.10;;;7.60;92.60;;;;;;5030067;28;20441;-74
2023/02/16 09:29:58;;;;;;;4.35;3.60;;;7.70;92.20;;;;;;5030691;28;20406;-74
2023/02/16 09:32:30;;;;;;;7.03;4.40;;;7.50;91.10;;;;;;5030656;28;20453;-75
2023/02/16 09:34:56;;;;;;;6.38;4.72;;;7.40;95.20;;;;;;5030888;28;20377;-74
2023/02/16 09:37:22;;;;;;;6.38;4.70;;;7.60;87.50;;;;;;5029962;28;20909;-74
2023/02/16 09:39:48;;;;;;;4.72;4.20;;;7.90;88.10;;;;;;5030753;28;20391;-74
2023/02/16 09:42:31;;;;;;;5.47;4.30;;;7.70;87.90;;;;;;5030557;28;20387;-74
2023/02/16 09:45:14;;;;;;;5.60;4.30;;;8.00;76.20;;;;;;5030674;28;20394;-74
2023/02/16 09:47:45;;;;;;;5.20;3.90;;;8.20;83.50;;;;;;4992925;28;20400;-74
2023/02/16 09:50:33;;;;;;;5.70;4.20;;;8.70;77.70;;;;;;5010822;28;20908;-74
2023/02/16 09:53:13;;;;;;;4.28;3.85;;;8.50;72.10;;;;;;4996568;28;20391;-74
2023/02/16 09:55:58;;;;;;;4.55;3.95;;;8.50;64.80;;;;;;5012473;28;20383;-74
2023/02/16 09:58:32;;;;;;;5.10;3.80;;;8.90;66.10;;;;;;5031250;28;20406;-75
2023/02/16 10:01:23;;;;;;;7.40;4.83;;;9.10;64.70;;;;;;5030733;28;20385;-75
2023/02/16 10:04:23;;;;;;;5.88;4.00;;;9.10;58.60;;;;;;5012421;28;20940;-75
2023/02/16 10:07:00;;;;;;;7.20;3.95;;;10.10;60.00;;;;;;5040417;28;20721;-75
2023/02/16 10:09:28;;;;;;;4.78;4.28;;;9.70;53.20;;;;;;5050432;28;20875;-75
2023/02/16 10:12:02;;;;;;;5.82;4.50;;;10.10;49.70;;;;;;5030988;28;20399;-75
2023/02/16 10:14:40;;;;;;;7.05;4.93;;;10.80;47.60;;;;;;5030260;28;20379;-75
2023/02/16 10:17:38;;;;;;;5.45;4.80;;;10.90;44.80;;;;;;5029853;28;20375;-75
2023/02/16 10:20:12;;;;;;;7.03;4.75;;;10.80;45.00;;;;;;4985783;28;20425;-75
2023/02/16 10:22:48;;;;;;;7.30;5.40;;;10.80;50.60;;;;;;5034079;28;20900;-75
2023/02/16 10:25:18;;;;;;;8.73;5.45;;;11.30;41.10;;;;;;5016236;28;20379;-73
2023/02/16 10:27:50;;;;;;;9.38;5.68;;;11.80;39.20;;;;;;5033308;28;20928;-73
2023/02/16 10:30:21;;;;;;;7.63;5.50;;;11.40;39.60;;;;;;5033634;28;20412;-73
2023/02/16 10:33:04;;;;;;;9.00;5.25;;;12.00;45.30;;;;;;5033766;28;20387;-74
2023/02/16 10:35:48;;;;;;;6.18;4.35;;;11.20;41.80;;;;;;5033708;28;20395;-74
2023/02/16 10:38:53;;;;;;;5.90;4.53;;;12.00;34.60;;;;;;5033346;28;20426;-73
2023/02/16 10:41:30;;;;;;;7.30;4.47;;;12.20;35.20;;;;;;4953338;29;20464;-74
2023/02/16 10:44:10;;;;;;;7.13;4.82;;;12.00;27.20;;;;;;5025054;28;20402;-74
2023/02/16 10:46:40;;;;;;;5.40;4.20;;;12.30;32.60;;;;;;5033426;28;20379;-74
2023/02/16 10:49:13;;;;;;;6.03;4.80;;;12.60;28.50;;;;;;5033400;28;20403;-74
2023/02/16 10:51:41;;;;;;;7.07;4.70;;;12.10;30.80;;;;;;5033706;28;20394;-74
2023/02/16 10:54:13;;;;;;;5.80;4.50;;;12.70;27.20;;;;;;5033329;28;20391;-74
2023/02/16 10:56:49;;;;;;;7.25;4.72;;;12.30;26.70;;;;;;5015427;28;20399;-74
2023/02/16 10:59:21;;;;;;;5.72;4.60;;;12.80;26.20;;;;;;5087916;22;20459;-73
2023/02/16 11:01:56;;;;;;;7.23;4.83;;;12.40;30.50;;;;;;5073285;28;20430;-73
2023/02/16 11:04:43;;;;;;;5.72;4.50;;;15.00;26.70;;;;;;5071925;28;20753;-73
2023/02/16 11:07:16;;;;;;;5.50;4.80;;;12.60;27.20;;;;;;5059611;28;20587;-74
2023/02/16 11:09:43;;;;;;;6.90;5.00;;;12.80;24.50;;;;;;5047534;28;20410;-75
2023/02/16 11:12:27;;;;;;;6.38;4.90;;;14.20;25.70;;;;;;5052763;28;20405;-73
2023/02/16 11:15:12;;;;;;;6.70;4.63;;;13.10;20.50;;;;;;5052994;28;20381;-73
2023/02/16 11:17:57;;;;;;;7.30;5.00;;;13.20;26.90;;;;;;5052839;28;20376;-74
2023/02/16 11:20:45;;;;;;;7.68;5.32;;;14.30;24.10;;;;;;5053156;28;20938;-73
2023/02/16 11:23:16;;;;;;;7.93;4.90;;;13.30;22.50;;;;;;5052416;28;20393;-73
2023/02/16 11:26:05;;;;;;;6.70;4.70;;;13.50;21.70;;;;;;5052492;28;20420;-74
2023/02/16 11:28:47;;;;;;;5.80;4.25;;;13.80;23.30;;;;;;5052718;28;20897;-74
2023/02/16 11:31:36;;;;;;;6.85;5.15;;;14.10;16.70;;;;;;5036811;28;20409;-73
2023/02/16 11:34:06;;;;;;;5.72;4.72;;;14.80;15.60;;;;;;5051972;28;20378;-73
2023/02/16 11:36:31;;;;;;;7.85;4.60;;;16.70;21.60;;;;;;5052334;28;20376;-73
2023/02/16 11:39:12;;;;;;;7.00;4.85;;;15.60;13.30;;;;;;5052072;28;20525;-73
2023/02/16 11:41:44;;;;;;;5.78;4.10;;;16.10;8.50;;;;;;5052281;28;20488;-73
2023/02/16 11:44:21;;;;;;;5.13;4.55;;;16.20;9.50;;;;;;5052564;28;20388;-73
2023/02/16 11:46:47;;;;;;;6.10;4.05;;;17.40;7.60;;;;;;5052331;28;20377;-73
2023/02/16 11:49:32;;;;;;;5.60;4.03;;;16.60;5.00;;;;;;5052140;28;20400;-73
2023/02/16 11:51:58;;;;;;;6.57;3.85;;;17.20;4.50;;;;;;5052128;28;20386;-73
2023/02/16 11:54:26;;;;;;;6.38;4.50;;;19.70;9.50;;;;;;5052276;28;20463;-73
2023/02/16 11:57:08;;;;;;;4.43;3.63;;;16.70;2.10;;;;;;5051689;28;20391;-75
2023/02/16 11:59:38;;;;;;;4.03;3.50;;;17.10;1.70;;;;;;5051763;28;20875;-72
2023/02/16 12:02:26;;;;;;;4.32;3.55;;;17.20;8.10;;;;;;5052024;28;20397;-73
2023/02/16 12:05:13;;;;;;;4.55;3.10;;;17.00;1.00;;;;;;5052150;28;20805;-74
2023/02/16 12:08:02;;;;;;;4.00;3.35;;;16.70;1.00;;;;;;5039941;28;20977;-73
2023/02/16 12:10:40;;;;;;;4.00;3.38;;;16.90;1.00;;;;;;5051831;28;20468;-73
2023/02/16 12:13:12;;;;;;;3.47;2.83;;;16.40;3.80;;;;;;5050180;28;20891;-73
2023/02/16 12:15:52;;;;;;;4.32;3.40;;;18.40;2.30;;;;;;5050308;28;20615;-73
2023/02/16 12:18:48;;;;;;;3.45;2.83;;;18.20;1.00;;;;;;5051840;28;20409;-73
2023/02/16 12:21:20;;;;;;;3.30;3.00;;;17.80;1.00;;;;;;5051979;28;20392;-73
2023/02/16 12:24:09;;;;;;;3.13;2.83;;;18.60;1.00;;;;;;5051303;28;20397;-73
2023/02/16 12:27:23;;;;;;;3.38;3.08;;;19.00;1.00;;;;;;5051471;28;20384;-74
2023/02/16 12:29:48;;;;;;;3.80;3.20;;;18.50;1.00;;;;;;5009977;28;20389;-75
2023/02/16 12:32:42;;;;;;;7.20;3.00;;;17.20;1.00;;;;;;5042770;28;20478;-74
2023/02/16 12:35:11;;;;;;;3.67;3.35;;;17.40;1.00;;;;;;5052007;28;20382;-74
2023/02/16 12:38:02;;;;;;;3.20;2.90;;;16.50;1.00;;;;;;5050110;28;20465;-74
2023/02/16 12:40:55;;;;;;;4.53;3.10;;;17.40;1.00;;;;;;5050550;28;20466;-74
2023/02/16 12:43:23;;;;;;;3.60;3.00;;;16.00;1.00;;;;;;5048253;28;20408;-74
2023/02/16 12:45:52;;;;;;;3.42;2.90;;;17.20;1.00;;;;;;5035787;28;20880;-75
2023/02/16 12:48:40;;;;;;;3.10;2.67;;;17.00;1.00;;;;;;5039744;28;20435;-74
2023/02/16 12:51:12;;;;;;;4.10;2.80;;;17.30;1.00;;;;;;5042977;28;20410;-74
2023/02/16 12:53:59;;;;;;;2.72;2.10;;;16.70;1.00;;;;;;5050883;28;20771;-75
2023/02/16 12:56:30;;;;;;;4.10;2.95;;;16.80;1.00;;;;;;5050865;28;20377;-74
2023/02/16 12:59:12;;;;;;;3.30;2.70;;;16.50;1.00;;;;;;5050597;28;20401;-75
2023/02/16 13:01:37;;;;;;;2.50;2.30;;;15.70;1.00;;;;;;5048947;28;20404;-74
2023/02/16 13:04:17;;;;;;;4.37;3.10;;;15.40;3.40;;;;;;5050556;28;20382;-75
2023/02/16 13:07:00;;;;;;;4.13;2.60;;;15.20;1.00;;;;;;5039850;28;20403;-74
2023/02/16 13:09:55;;;;;;;5.30;2.42;;;15.00;8.50;;;;;;5031019;28;20391;-74
2023/02/16 13:12:35;;;;;;;4.28;2.78;;;15.50;6.90;;;;;;5050312;28;20421;-74
2023/02/16 13:15:09;;;;;;;3.50;2.70;;;15.80;1.00;;;;;;5042145;28;20401;-74
2023/02/16 13:17:41;;;;;;;3.40;3.10;;;15.80;1.40;;;;;;5049278;28;20389;-74
2023/02/16 13:20:14;;;;;;;3.63;3.13;;;15.60;1.80;;;;;;5039711;28;20401;-74
2023/02/16 13:22:43;;;;;;;3.28;2.78;;;;;;;;;;5038325;28;20483;-74
2023/02/16 13:25:36;;;;;;;3.55;2.63;;;16.80;1.00;;;;;;5037648;28;20841;-75
2023/02/16 13:28:08;;;;;;;4.70;2.97;;;17.70;1.00;;;;;;5040676;28;20393;-75
2023/02/16 13:30:47;;;;;;;3.47;2.88;;;17.70;5.30;;;;;;5051584;28;20407;-74
2023/02/16 13:33:54;;;;;;;4.80;3.05;;;17.10;1.00;;;;;;5043329;28;20426;-74
2023/02/16 13:36:37;;;;;;;4.88;3.30;;;16.60;2.10;;;;;;5016261;28;20401;-73
2023/02/16 13:39:35;;;;;;;3.90;3.13;;;16.60;2.40;;;;;;5046366;28;20500;-72
2023/02/16 13:42:19;;;;;;;4.07;3.50;;;16.50;3.90;;;;;;5042334;28;20397;-73
2023/02/16 13:44:50;;;;;;;3.45;3.13;;;15.90;1.00;;;;;;5037469;28;20386;-73
2023/02/16 13:47:25;;;;;;;5.38;2.90;;;16.50;3.40;;;;;;5064572;28;20388;-73
2023/02/16 13:50:00;;;;;;;4.63;3.50;;;15.80;4.30;;;;;;5046946;28;20388;-73
2023/02/16 13:52:35;;;;;;;6.10;3.47;;;15.30;5.40;;;;;;5033566;28;20406;-74
2023/02/16 13:55:07;;;;;;;4.47;3.25;;;15.40;2.60;;;;;;5047563;28;20383;-73
2023/02/16 13:57:47;;;;;;;15.98;4.00;;;15.00;6.10;;;;;;5047862;28;20387;-73
2023/02/16 14:00:32;;;;;;;6.03;3.63;;;14.90;6.00;;;;;;5041763;28;20434;-72
2023/02/16 14:03:16;;;;;;;5.63;3.65;;;15.20;2.80;;;;;;5041012;28;20430;-73
2023/02/16 14:05:44;;;;;;;5.35;3.90;;;17.40;14.10;;;;;;5050668;28;20966;-76
2023/02/16 14:08:12;;;;;;;5.50;4.00;;;15.90;9.00;;;;;;5040929;28;20390;-74